sensor_id;sensor_type;location;lat;lon;timestamp;P1;durP1;ratioP1;P2;durP2;ratioP2
79204;SDS011;68632;47.512;19.104;2023-04-01T00:00:17;4.50;;;2.60;;
79204;SDS011;68632;47.512;19.104;2023-04-01T00:01:19;4.78;;;2.28;;
79204;SDS011;68632;47.512;19.104;2023-04-01T00:02:21;3.65;;;2.17;;
79204;SDS011;68632;47.512;19.104;2023-04-01T00:03:24;4.55;;;2.90;;
79204;SDS011;68632;47.512;19.104;2023-04-01T00:04:28;3.75;;;2.13;;
79204;SDS011;68632;47.512;19.104;2023-04-01T00:05:30;8.38;;;3.05;;
79204;SDS011;68632;47.512;19.104;2023-04-01T00:06:33;5.60;;;2.38;;
79204;SDS011;68632;47.512;19.104;2023-04-01T00:07:35;6.88;;;2.55;;
79204;SDS011;68632;47.512;19.104;2023-04-01T00:08:41;6.28;;;2.95;;
79204;SDS011;68632;47.512;19.104;2023-04-01T00:09:43;4.60;;;2.58;;
79204;SDS011;68632;47.512;19.104;2023-04-01T00:10:45;5.55;;;3.00;;
79204;SDS011;68632;47.512;19.104;2023-04-01T00:11:47;4.45;;;2.38;;
79204;SDS011;68632;47.512;19.104;2023-04-01T00:12:49;4.43;;;2.75;;
79204;SDS011;68632;47.512;19.104;2023-04-01T00:13:52;4.72;;;2.60;;
79204;SDS011;68632;47.512;19.104;2023-04-01T00:14:54;3.67;;;2.70;;
79204;SDS011;68632;47.512;19.104;2023-04-01T00:15:56;5.05;;;2.70;;
79204;SDS011;68632;47.512;19.104;2023-04-01T00:17:01;3.97;;;2.83;;
79204;SDS011;68632;47.512;19.104;2023-04-01T00:18:03;4.35;;;3.22;;
79204;SDS011;68632;47.512;19.104;2023-04-01T00:19:06;5.75;;;3.20;;
79204;SDS011;68632;47.512;19.104;2023-04-01T00:20:09;5.88;;;2.83;;
79204;SDS011;68632;47.512;19.104;2023-04-01T00:21:11;4.78;;;2.75;;
79204;SDS011;68632;47.512;19.104;2023-04-01T00:22:13;3.80;;;2.60;;
79204;SDS011;68632;47.512;19.104;2023-04-01T00:23:16;4.32;;;2.83;;
79204;SDS011;68632;47.512;19.104;2023-04-01T00:24:18;4.88;;;2.85;;
79204;SDS011;68632;47.512;19.104;2023-04-01T00:25:20;4.97;;;2.95;;
79204;SDS011;68632;47.512;19.104;2023-04-01T00:26:23;4.07;;;2.63;;
79204;SDS011;68632;47.512;19.104;2023-04-01T00:27:26;5.18;;;3.03;;
79204;SDS011;68632;47.512;19.104;2023-04-01T00:28:28;3.95;;;2.65;;
79204;SDS011;68632;47.512;19.104;2023-04-01T00:29:31;6.20;;;3.13;;
79204;SDS011;68632;47.512;19.104;2023-04-01T00:30:35;6.07;;;2.83;;
79204;SDS011;68632;47.512;19.104;2023-04-01T00:31:38;7.55;;;4.45;;
79204;SDS011;68632;47.512;19.104;2023-04-01T00:32:40;4.75;;;2.95;;
79204;SDS011;68632;47.512;19.104;2023-04-01T00:33:42;7.10;;;3.72;;
79204;SDS011;68632;47.512;19.104;2023-04-01T00:34:45;4.68;;;3.10;;
79204;SDS011;68632;47.512;19.104;2023-04-01T00:35:47;7.35;;;3.15;;
79204;SDS011;68632;47.512;19.104;2023-04-01T00:36:50;6.88;;;3.53;;
79204;SDS011;68632;47.512;19.104;2023-04-01T00:37:53;6.63;;;3.30;;
79204;SDS011;68632;47.512;19.104;2023-04-01T00:38:57;5.15;;;3.25;;
79204;SDS011;68632;47.512;19.104;2023-04-01T00:40:00;5.05;;;3.15;;
79204;SDS011;68632;47.512;19.104;2023-04-01T00:41:03;5.30;;;3.53;;
79204;SDS011;68632;47.512;19.104;2023-04-01T00:42:06;5.30;;;3.70;;
79204;SDS011;68632;47.512;19.104;2023-04-01T00:44:19;6.60;;;3.17;;
79204;SDS011;68632;47.512;19.104;2023-04-01T00:46:33;4.63;;;3.28;;
79204;SDS011;68632;47.512;19.104;2023-04-01T00:47:37;4.00;;;2.88;;
79204;SDS011;68632;47.512;19.104;2023-04-01T00:48:40;5.00;;;2.88;;
79204;SDS011;68632;47.512;19.104;2023-04-01T00:49:45;4.50;;;3.25;;
79204;SDS011;68632;47.512;19.104;2023-04-01T00:50:50;6.18;;;4.10;;
79204;SDS011;68632;47.512;19.104;2023-04-01T00:51:54;6.82;;;3.83;;
79204;SDS011;68632;47.512;19.104;2023-04-01T00:52:58;6.00;;;3.20;;
79204;SDS011;68632;47.512;19.104;2023-04-01T00:54:01;5.70;;;3.22;;
79204;SDS011;68632;47.512;19.104;2023-04-01T00:55:05;5.97;;;3.17;;
79204;SDS011;68632;47.512;19.104;2023-04-01T00:56:13;4.90;;;3.30;;
79204;SDS011;68632;47.512;19.104;2023-04-01T00:57:28;7.00;;;3.45;;
79204;SDS011;68632;47.512;19.104;2023-04-01T00:58:35;4.05;;;2.80;;
79204;SDS011;68632;47.512;19.104;2023-04-01T00:59:41;6.00;;;3.05;;
79204;SDS011;68632;47.512;19.104;2023-04-01T01:00:45;5.82;;;3.83;;
79204;SDS011;68632;47.512;19.104;2023-04-01T01:01:49;5.90;;;3.60;;
79204;SDS011;68632;47.512;19.104;2023-04-01T01:02:52;6.53;;;2.90;;
79204;SDS011;68632;47.512;19.104;2023-04-01T01:03:54;8.75;;;3.53;;
79204;SDS011;68632;47.512;19.104;2023-04-01T01:04:56;4.97;;;3.25;;
79204;SDS011;68632;47.512;19.104;2023-04-01T01:08:19;7.70;;;3.38;;
79204;SDS011;68632;47.512;19.104;2023-04-01T01:10:57;8.65;;;3.22;;
79204;SDS011;68632;47.512;19.104;2023-04-01T01:16:04;6.35;;;3.50;;
79204;SDS011;68632;47.512;19.104;2023-04-01T01:17:20;3.60;;;2.65;;
79204;SDS011;68632;47.512;19.104;2023-04-01T01:22:48;5.40;;;2.75;;
79204;SDS011;68632;47.512;19.104;2023-04-01T01:27:49;4.40;;;2.25;;
79204;SDS011;68632;47.512;19.104;2023-04-01T01:31:37;7.03;;;2.45;;
79204;SDS011;68632;47.512;19.104;2023-04-01T01:34:34;5.90;;;2.75;;
79204;SDS011;68632;47.512;19.104;2023-04-01T01:35:43;6.95;;;2.33;;
79204;SDS011;68632;47.512;19.104;2023-04-01T01:36:50;3.90;;;2.33;;
79204;SDS011;68632;47.512;19.104;2023-04-01T01:38:00;4.15;;;2.30;;
79204;SDS011;68632;47.512;19.104;2023-04-01T01:39:06;5.30;;;2.13;;
79204;SDS011;68632;47.512;19.104;2023-04-01T01:40:10;4.25;;;1.90;;
79204;SDS011;68632;47.512;19.104;2023-04-01T01:41:13;3.58;;;1.92;;
79204;SDS011;68632;47.512;19.104;2023-04-01T01:42:18;3.40;;;2.17;;
79204;SDS011;68632;47.512;19.104;2023-04-01T01:43:23;3.75;;;2.35;;
79204;SDS011;68632;47.512;19.104;2023-04-01T01:44:27;5.43;;;2.38;;
79204;SDS011;68632;47.512;19.104;2023-04-01T01:45:30;5.38;;;2.22;;
79204;SDS011;68632;47.512;19.104;2023-04-01T01:46:34;4.75;;;2.10;;
79204;SDS011;68632;47.512;19.104;2023-04-01T01:47:37;6.25;;;2.55;;
79204;SDS011;68632;47.512;19.104;2023-04-01T01:48:41;5.00;;;1.83;;
79204;SDS011;68632;47.512;19.104;2023-04-01T01:49:44;8.07;;;2.03;;
79204;SDS011;68632;47.512;19.104;2023-04-01T01:50:47;3.38;;;1.88;;
79204;SDS011;68632;47.512;19.104;2023-04-01T01:51:50;3.85;;;2.08;;
79204;SDS011;68632;47.512;19.104;2023-04-01T01:53:00;4.13;;;2.15;;
79204;SDS011;68632;47.512;19.104;2023-04-01T01:54:03;3.97;;;2.03;;
79204;SDS011;68632;47.512;19.104;2023-04-01T01:55:22;3.85;;;2.28;;
79204;SDS011;68632;47.512;19.104;2023-04-01T01:56:26;3.38;;;2.20;;
79204;SDS011;68632;47.512;19.104;2023-04-01T01:57:31;4.07;;;2.80;;
79204;SDS011;68632;47.512;19.104;2023-04-01T01:58:37;5.20;;;2.72;;
79204;SDS011;68632;47.512;19.104;2023-04-01T01:59:42;6.25;;;2.40;;
79204;SDS011;68632;47.512;19.104;2023-04-01T02:00:48;6.05;;;2.13;;
79204;SDS011;68632;47.512;19.104;2023-04-01T02:01:54;4.53;;;2.33;;
79204;SDS011;68632;47.512;19.104;2023-04-01T02:02:57;3.83;;;2.13;;
79204;SDS011;68632;47.512;19.104;2023-04-01T02:04:00;5.63;;;2.30;;
79204;SDS011;68632;47.512;19.104;2023-04-01T02:05:03;4.03;;;2.63;;
79204;SDS011;68632;47.512;19.104;2023-04-01T02:06:07;7.43;;;3.30;;
79204;SDS011;68632;47.512;19.104;2023-04-01T02:07:17;4.05;;;2.30;;
79204;SDS011;68632;47.512;19.104;2023-04-01T02:08:22;6.40;;;2.53;;
79204;SDS011;68632;47.512;19.104;2023-04-01T02:09:28;3.60;;;2.00;;
79204;SDS011;68632;47.512;19.104;2023-04-01T02:10:32;5.00;;;2.35;;
79204;SDS011;68632;47.512;19.104;2023-04-01T02:11:51;4.03;;;2.60;;
79204;SDS011;68632;47.512;19.104;2023-04-01T02:14:10;4.78;;;2.42;;
79204;SDS011;68632;47.512;19.104;2023-04-01T02:15:14;7.40;;;2.45;;
79204;SDS011;68632;47.512;19.104;2023-04-01T02:16:26;4.55;;;2.40;;
79204;SDS011;68632;47.512;19.104;2023-04-01T02:17:31;6.13;;;2.55;;
79204;SDS011;68632;47.512;19.104;2023-04-01T02:18:35;3.78;;;2.10;;
79204;SDS011;68632;47.512;19.104;2023-04-01T02:19:40;4.70;;;2.03;;
79204;SDS011;68632;47.512;19.104;2023-04-01T02:20:45;4.30;;;2.22;;
79204;SDS011;68632;47.512;19.104;2023-04-01T02:21:51;3.72;;;2.28;;
79204;SDS011;68632;47.512;19.104;2023-04-01T02:22:56;3.58;;;2.10;;
79204;SDS011;68632;47.512;19.104;2023-04-01T02:24:02;4.60;;;2.33;;
79204;SDS011;68632;47.512;19.104;2023-04-01T02:25:10;3.53;;;1.85;;
79204;SDS011;68632;47.512;19.104;2023-04-01T02:26:14;4.35;;;2.03;;
79204;SDS011;68632;47.512;19.104;2023-04-01T02:27:17;3.65;;;2.03;;
79204;SDS011;68632;47.512;19.104;2023-04-01T02:28:20;3.67;;;2.08;;
79204;SDS011;68632;47.512;19.104;2023-04-01T02:29:23;3.17;;;1.58;;
79204;SDS011;68632;47.512;19.104;2023-04-01T02:30:27;3.67;;;2.45;;
79204;SDS011;68632;47.512;19.104;2023-04-01T02:31:31;3.40;;;1.85;;
79204;SDS011;68632;47.512;19.104;2023-04-01T02:32:34;3.83;;;1.90;;
79204;SDS011;68632;47.512;19.104;2023-04-01T02:33:39;3.85;;;2.17;;
79204;SDS011;68632;47.512;19.104;2023-04-01T02:34:42;2.20;;;1.60;;
79204;SDS011;68632;47.512;19.104;2023-04-01T02:35:44;4.90;;;1.75;;
79204;SDS011;68632;47.512;19.104;2023-04-01T02:36:47;5.22;;;1.88;;
79204;SDS011;68632;47.512;19.104;2023-04-01T02:37:50;3.95;;;2.03;;
79204;SDS011;68632;47.512;19.104;2023-04-01T02:38:54;3.92;;;2.55;;
79204;SDS011;68632;47.512;19.104;2023-04-01T02:39:59;2.63;;;1.63;;
79204;SDS011;68632;47.512;19.104;2023-04-01T02:41:02;2.75;;;1.63;;
79204;SDS011;68632;47.512;19.104;2023-04-01T02:42:05;3.47;;;1.95;;
79204;SDS011;68632;47.512;19.104;2023-04-01T02:43:07;4.18;;;1.98;;
79204;SDS011;68632;47.512;19.104;2023-04-01T02:44:10;4.20;;;1.63;;
79204;SDS011;68632;47.512;19.104;2023-04-01T02:45:13;2.03;;;1.48;;
79204;SDS011;68632;47.512;19.104;2023-04-01T02:46:16;3.95;;;1.65;;
79204;SDS011;68632;47.512;19.104;2023-04-01T02:47:18;3.60;;;1.63;;
79204;SDS011;68632;47.512;19.104;2023-04-01T02:48:21;4.55;;;1.70;;
79204;SDS011;68632;47.512;19.104;2023-04-01T02:49:23;3.30;;;1.88;;
79204;SDS011;68632;47.512;19.104;2023-04-01T02:50:25;2.92;;;1.73;;
79204;SDS011;68632;47.512;19.104;2023-04-01T02:51:27;3.28;;;1.85;;
79204;SDS011;68632;47.512;19.104;2023-04-01T02:52:31;3.20;;;1.73;;
79204;SDS011;68632;47.512;19.104;2023-04-01T02:53:33;2.70;;;1.88;;
79204;SDS011;68632;47.512;19.104;2023-04-01T02:54:35;2.20;;;1.60;;
79204;SDS011;68632;47.512;19.104;2023-04-01T02:55:37;3.10;;;1.77;;
79204;SDS011;68632;47.512;19.104;2023-04-01T02:56:40;3.67;;;1.55;;
79204;SDS011;68632;47.512;19.104;2023-04-01T02:57:42;2.53;;;1.77;;
79204;SDS011;68632;47.512;19.104;2023-04-01T02:58:44;3.17;;;1.70;;
79204;SDS011;68632;47.512;19.104;2023-04-01T02:59:46;3.15;;;1.75;;
79204;SDS011;68632;47.512;19.104;2023-04-01T03:00:49;4.60;;;2.20;;
79204;SDS011;68632;47.512;19.104;2023-04-01T03:01:51;3.70;;;1.80;;
79204;SDS011;68632;47.512;19.104;2023-04-01T03:02:53;6.00;;;1.85;;
79204;SDS011;68632;47.512;19.104;2023-04-01T03:03:55;3.03;;;1.80;;
79204;SDS011;68632;47.512;19.104;2023-04-01T03:04:57;3.08;;;2.15;;
79204;SDS011;68632;47.512;19.104;2023-04-01T03:06:06;5.47;;;1.80;;
79204;SDS011;68632;47.512;19.104;2023-04-01T03:07:09;3.05;;;1.77;;
79204;SDS011;68632;47.512;19.104;2023-04-01T03:08:12;3.22;;;1.75;;
79204;SDS011;68632;47.512;19.104;2023-04-01T03:09:14;2.85;;;1.85;;
79204;SDS011;68632;47.512;19.104;2023-04-01T03:10:16;3.70;;;1.80;;
79204;SDS011;68632;47.512;19.104;2023-04-01T03:11:18;4.70;;;2.25;;
79204;SDS011;68632;47.512;19.104;2023-04-01T03:12:21;3.17;;;1.90;;
79204;SDS011;68632;47.512;19.104;2023-04-01T03:13:23;3.13;;;1.83;;
79204;SDS011;68632;47.512;19.104;2023-04-01T03:14:25;5.05;;;2.13;;
79204;SDS011;68632;47.512;19.104;2023-04-01T03:15:28;3.20;;;1.73;;
79204;SDS011;68632;47.512;19.104;2023-04-01T03:16:30;3.83;;;1.90;;
79204;SDS011;68632;47.512;19.104;2023-04-01T03:17:32;3.00;;;1.70;;
79204;SDS011;68632;47.512;19.104;2023-04-01T03:18:34;2.88;;;1.60;;
79204;SDS011;68632;47.512;19.104;2023-04-01T03:19:36;3.25;;;2.00;;
79204;SDS011;68632;47.512;19.104;2023-04-01T03:20:38;2.75;;;1.75;;
79204;SDS011;68632;47.512;19.104;2023-04-01T03:21:41;3.17;;;1.77;;
79204;SDS011;68632;47.512;19.104;2023-04-01T03:22:43;3.42;;;2.17;;
79204;SDS011;68632;47.512;19.104;2023-04-01T03:23:45;3.67;;;1.95;;
79204;SDS011;68632;47.512;19.104;2023-04-01T03:24:48;3.13;;;2.13;;
79204;SDS011;68632;47.512;19.104;2023-04-01T03:25:50;3.33;;;2.00;;
79204;SDS011;68632;47.512;19.104;2023-04-01T03:26:52;5.65;;;2.28;;
79204;SDS011;68632;47.512;19.104;2023-04-01T03:27:54;3.95;;;2.10;;
79204;SDS011;68632;47.512;19.104;2023-04-01T03:28:56;4.70;;;2.22;;
79204;SDS011;68632;47.512;19.104;2023-04-01T03:29:59;3.55;;;2.25;;
79204;SDS011;68632;47.512;19.104;2023-04-01T03:31:01;2.90;;;1.73;;
79204;SDS011;68632;47.512;19.104;2023-04-01T03:32:04;5.05;;;1.85;;
79204;SDS011;68632;47.512;19.104;2023-04-01T03:33:06;3.65;;;2.30;;
79204;SDS011;68632;47.512;19.104;2023-04-01T03:34:08;2.80;;;1.67;;
79204;SDS011;68632;47.512;19.104;2023-04-01T03:35:11;4.20;;;1.77;;
79204;SDS011;68632;47.512;19.104;2023-04-01T03:36:13;4.05;;;1.73;;
79204;SDS011;68632;47.512;19.104;2023-04-01T03:37:15;3.03;;;1.95;;
79204;SDS011;68632;47.512;19.104;2023-04-01T03:38:18;4.72;;;1.92;;
79204;SDS011;68632;47.512;19.104;2023-04-01T03:39:20;4.68;;;1.73;;
79204;SDS011;68632;47.512;19.104;2023-04-01T03:40:22;4.43;;;2.20;;
79204;SDS011;68632;47.512;19.104;2023-04-01T03:41:25;3.38;;;1.70;;
79204;SDS011;68632;47.512;19.104;2023-04-01T03:42:27;2.67;;;1.80;;
79204;SDS011;68632;47.512;19.104;2023-04-01T03:43:29;2.88;;;1.77;;
79204;SDS011;68632;47.512;19.104;2023-04-01T03:44:32;4.10;;;2.00;;
79204;SDS011;68632;47.512;19.104;2023-04-01T03:45:35;2.67;;;1.80;;
79204;SDS011;68632;47.512;19.104;2023-04-01T03:46:37;4.18;;;1.73;;
79204;SDS011;68632;47.512;19.104;2023-04-01T03:47:40;3.22;;;2.20;;
79204;SDS011;68632;47.512;19.104;2023-04-01T03:48:43;3.33;;;1.77;;
79204;SDS011;68632;47.512;19.104;2023-04-01T03:49:45;3.20;;;1.73;;
79204;SDS011;68632;47.512;19.104;2023-04-01T03:50:47;2.70;;;1.80;;
79204;SDS011;68632;47.512;19.104;2023-04-01T03:51:50;3.55;;;1.85;;
79204;SDS011;68632;47.512;19.104;2023-04-01T03:52:52;3.50;;;2.42;;
79204;SDS011;68632;47.512;19.104;2023-04-01T03:53:54;4.25;;;2.67;;
79204;SDS011;68632;47.512;19.104;2023-04-01T03:54:56;3.65;;;2.63;;
79204;SDS011;68632;47.512;19.104;2023-04-01T03:56:02;4.40;;;1.67;;
79204;SDS011;68632;47.512;19.104;2023-04-01T03:57:05;3.22;;;2.40;;
79204;SDS011;68632;47.512;19.104;2023-04-01T03:58:08;3.97;;;1.90;;
79204;SDS011;68632;47.512;19.104;2023-04-01T03:59:10;5.20;;;2.08;;
79204;SDS011;68632;47.512;19.104;2023-04-01T04:00:13;3.50;;;2.00;;
79204;SDS011;68632;47.512;19.104;2023-04-01T04:01:19;3.30;;;2.03;;
79204;SDS011;68632;47.512;19.104;2023-04-01T04:02:22;3.25;;;1.88;;
79204;SDS011;68632;47.512;19.104;2023-04-01T04:03:25;3.42;;;1.77;;
79204;SDS011;68632;47.512;19.104;2023-04-01T04:04:28;3.00;;;1.83;;
79204;SDS011;68632;47.512;19.104;2023-04-01T04:05:30;6.72;;;2.17;;
79204;SDS011;68632;47.512;19.104;2023-04-01T04:06:33;2.95;;;2.10;;
79204;SDS011;68632;47.512;19.104;2023-04-01T04:07:35;3.42;;;1.73;;
79204;SDS011;68632;47.512;19.104;2023-04-01T04:08:38;3.95;;;1.95;;
79204;SDS011;68632;47.512;19.104;2023-04-01T04:09:40;3.00;;;1.83;;
79204;SDS011;68632;47.512;19.104;2023-04-01T04:10:42;4.00;;;2.30;;
79204;SDS011;68632;47.512;19.104;2023-04-01T04:11:45;3.53;;;1.75;;
79204;SDS011;68632;47.512;19.104;2023-04-01T04:12:48;3.40;;;2.17;;
79204;SDS011;68632;47.512;19.104;2023-04-01T04:13:50;3.22;;;2.00;;
79204;SDS011;68632;47.512;19.104;2023-04-01T04:14:54;3.75;;;2.10;;
79204;SDS011;68632;47.512;19.104;2023-04-01T04:15:56;2.55;;;1.67;;
79204;SDS011;68632;47.512;19.104;2023-04-01T04:16:58;2.63;;;1.80;;
79204;SDS011;68632;47.512;19.104;2023-04-01T04:18:00;3.05;;;1.80;;
79204;SDS011;68632;47.512;19.104;2023-04-01T04:19:03;3.80;;;1.80;;
79204;SDS011;68632;47.512;19.104;2023-04-01T04:20:05;3.70;;;2.00;;
79204;SDS011;68632;47.512;19.104;2023-04-01T04:21:11;3.25;;;2.03;;
79204;SDS011;68632;47.512;19.104;2023-04-01T04:22:14;5.82;;;2.10;;
79204;SDS011;68632;47.512;19.104;2023-04-01T04:23:16;2.70;;;1.80;;
79204;SDS011;68632;47.512;19.104;2023-04-01T04:24:19;4.80;;;2.35;;
79204;SDS011;68632;47.512;19.104;2023-04-01T04:25:22;2.92;;;1.73;;
79204;SDS011;68632;47.512;19.104;2023-04-01T04:26:24;5.32;;;1.80;;
79204;SDS011;68632;47.512;19.104;2023-04-01T04:27:27;4.30;;;2.08;;
79204;SDS011;68632;47.512;19.104;2023-04-01T04:28:29;2.55;;;1.58;;
79204;SDS011;68632;47.512;19.104;2023-04-01T04:29:31;3.28;;;1.83;;
79204;SDS011;68632;47.512;19.104;2023-04-01T04:30:33;3.55;;;2.00;;
79204;SDS011;68632;47.512;19.104;2023-04-01T04:31:36;3.88;;;2.00;;
79204;SDS011;68632;47.512;19.104;2023-04-01T04:32:38;3.05;;;2.05;;
79204;SDS011;68632;47.512;19.104;2023-04-01T04:33:40;3.20;;;1.95;;
79204;SDS011;68632;47.512;19.104;2023-04-01T04:34:42;3.78;;;1.90;;
79204;SDS011;68632;47.512;19.104;2023-04-01T04:35:44;4.05;;;1.80;;
79204;SDS011;68632;47.512;19.104;2023-04-01T04:36:46;3.15;;;1.88;;
79204;SDS011;68632;47.512;19.104;2023-04-01T04:37:49;3.25;;;1.88;;
79204;SDS011;68632;47.512;19.104;2023-04-01T04:38:51;3.40;;;2.10;;
79204;SDS011;68632;47.512;19.104;2023-04-01T04:39:53;5.10;;;1.65;;
79204;SDS011;68632;47.512;19.104;2023-04-01T04:40:55;3.92;;;1.95;;
79204;SDS011;68632;47.512;19.104;2023-04-01T04:41:57;3.40;;;2.13;;
79204;SDS011;68632;47.512;19.104;2023-04-01T04:42:59;2.92;;;1.83;;
79204;SDS011;68632;47.512;19.104;2023-04-01T04:44:01;4.63;;;1.90;;
79204;SDS011;68632;47.512;19.104;2023-04-01T04:45:04;3.58;;;2.05;;
79204;SDS011;68632;47.512;19.104;2023-04-01T04:46:10;4.97;;;1.70;;
79204;SDS011;68632;47.512;19.104;2023-04-01T04:47:12;3.92;;;2.08;;
79204;SDS011;68632;47.512;19.104;2023-04-01T04:48:15;3.45;;;2.03;;
79204;SDS011;68632;47.512;19.104;2023-04-01T04:49:20;4.72;;;2.20;;
79204;SDS011;68632;47.512;19.104;2023-04-01T04:50:23;2.92;;;1.75;;
79204;SDS011;68632;47.512;19.104;2023-04-01T04:51:25;4.35;;;2.38;;
79204;SDS011;68632;47.512;19.104;2023-04-01T04:52:28;3.45;;;2.10;;
79204;SDS011;68632;47.512;19.104;2023-04-01T04:53:30;6.30;;;2.10;;
79204;SDS011;68632;47.512;19.104;2023-04-01T04:54:32;5.38;;;3.10;;
79204;SDS011;68632;47.512;19.104;2023-04-01T04:55:34;3.45;;;2.28;;
79204;SDS011;68632;47.512;19.104;2023-04-01T04:56:36;6.97;;;2.00;;
79204;SDS011;68632;47.512;19.104;2023-04-01T04:57:38;2.97;;;2.15;;
79204;SDS011;68632;47.512;19.104;2023-04-01T04:58:41;4.25;;;2.00;;
79204;SDS011;68632;47.512;19.104;2023-04-01T04:59:43;5.45;;;1.90;;
79204;SDS011;68632;47.512;19.104;2023-04-01T05:00:45;3.33;;;1.73;;
79204;SDS011;68632;47.512;19.104;2023-04-01T05:01:47;4.35;;;1.90;;
79204;SDS011;68632;47.512;19.104;2023-04-01T05:02:50;3.33;;;2.10;;
79204;SDS011;68632;47.512;19.104;2023-04-01T05:03:52;2.85;;;2.05;;
79204;SDS011;68632;47.512;19.104;2023-04-01T05:04:54;6.55;;;2.20;;
79204;SDS011;68632;47.512;19.104;2023-04-01T05:05:57;3.88;;;1.95;;
79204;SDS011;68632;47.512;19.104;2023-04-01T05:06:59;3.33;;;2.20;;
79204;SDS011;68632;47.512;19.104;2023-04-01T05:08:01;3.00;;;2.17;;
79204;SDS011;68632;47.512;19.104;2023-04-01T05:09:03;3.33;;;2.30;;
79204;SDS011;68632;47.512;19.104;2023-04-01T05:10:06;4.13;;;1.90;;
79204;SDS011;68632;47.512;19.104;2023-04-01T05:11:15;7.28;;;2.42;;
79204;SDS011;68632;47.512;19.104;2023-04-01T05:12:19;3.92;;;1.95;;
79204;SDS011;68632;47.512;19.104;2023-04-01T05:13:21;5.05;;;2.28;;
79204;SDS011;68632;47.512;19.104;2023-04-01T05:14:23;3.63;;;2.03;;
79204;SDS011;68632;47.512;19.104;2023-04-01T05:15:26;5.68;;;2.10;;
79204;SDS011;68632;47.512;19.104;2023-04-01T05:16:28;5.20;;;2.13;;
79204;SDS011;68632;47.512;19.104;2023-04-01T05:17:30;4.32;;;1.80;;
79204;SDS011;68632;47.512;19.104;2023-04-01T05:18:32;4.63;;;1.85;;
79204;SDS011;68632;47.512;19.104;2023-04-01T05:19:34;6.18;;;2.25;;
79204;SDS011;68632;47.512;19.104;2023-04-01T05:20:37;4.20;;;2.28;;
79204;SDS011;68632;47.512;19.104;2023-04-01T05:21:39;5.28;;;2.70;;
79204;SDS011;68632;47.512;19.104;2023-04-01T05:22:41;3.38;;;2.08;;
79204;SDS011;68632;47.512;19.104;2023-04-01T05:23:44;4.45;;;2.45;;
79204;SDS011;68632;47.512;19.104;2023-04-01T05:24:46;3.78;;;2.13;;
79204;SDS011;68632;47.512;19.104;2023-04-01T05:25:48;4.07;;;2.50;;
79204;SDS011;68632;47.512;19.104;2023-04-01T05:26:51;6.78;;;2.03;;
79204;SDS011;68632;47.512;19.104;2023-04-01T05:27:55;3.72;;;2.05;;
79204;SDS011;68632;47.512;19.104;2023-04-01T05:28:57;6.28;;;2.17;;
79204;SDS011;68632;47.512;19.104;2023-04-01T05:30:00;3.45;;;2.13;;
79204;SDS011;68632;47.512;19.104;2023-04-01T05:31:02;5.43;;;2.22;;
79204;SDS011;68632;47.512;19.104;2023-04-01T05:32:05;3.42;;;1.73;;
79204;SDS011;68632;47.512;19.104;2023-04-01T05:33:07;3.70;;;2.10;;
79204;SDS011;68632;47.512;19.104;2023-04-01T05:34:10;3.20;;;2.00;;
79204;SDS011;68632;47.512;19.104;2023-04-01T05:35:12;4.10;;;2.28;;
79204;SDS011;68632;47.512;19.104;2023-04-01T05:36:15;4.30;;;2.25;;
79204;SDS011;68632;47.512;19.104;2023-04-01T05:37:18;3.78;;;2.38;;
79204;SDS011;68632;47.512;19.104;2023-04-01T05:38:20;2.80;;;1.75;;
79204;SDS011;68632;47.512;19.104;2023-04-01T05:39:22;4.03;;;2.63;;
79204;SDS011;68632;47.512;19.104;2023-04-01T05:40:25;3.95;;;2.10;;
79204;SDS011;68632;47.512;19.104;2023-04-01T05:41:27;3.13;;;2.17;;
79204;SDS011;68632;47.512;19.104;2023-04-01T05:42:29;3.30;;;1.83;;
79204;SDS011;68632;47.512;19.104;2023-04-01T05:43:31;5.63;;;1.92;;
79204;SDS011;68632;47.512;19.104;2023-04-01T05:44:34;3.83;;;1.83;;
79204;SDS011;68632;47.512;19.104;2023-04-01T05:45:36;5.10;;;2.13;;
79204;SDS011;68632;47.512;19.104;2023-04-01T05:46:39;4.90;;;1.92;;
79204;SDS011;68632;47.512;19.104;2023-04-01T05:47:41;3.55;;;1.80;;
79204;SDS011;68632;47.512;19.104;2023-04-01T05:48:44;5.35;;;2.20;;
79204;SDS011;68632;47.512;19.104;2023-04-01T05:49:46;3.20;;;1.80;;
79204;SDS011;68632;47.512;19.104;2023-04-01T05:50:48;5.85;;;2.25;;
79204;SDS011;68632;47.512;19.104;2023-04-01T05:51:50;4.57;;;1.60;;
79204;SDS011;68632;47.512;19.104;2023-04-01T05:52:53;4.05;;;1.90;;
79204;SDS011;68632;47.512;19.104;2023-04-01T05:53:55;3.03;;;1.65;;
79204;SDS011;68632;47.512;19.104;2023-04-01T05:54:57;4.32;;;1.80;;
79204;SDS011;68632;47.512;19.104;2023-04-01T05:56:03;4.05;;;1.83;;
79204;SDS011;68632;47.512;19.104;2023-04-01T05:57:05;4.47;;;2.22;;
79204;SDS011;68632;47.512;19.104;2023-04-01T05:58:08;4.45;;;1.70;;
79204;SDS011;68632;47.512;19.104;2023-04-01T05:59:10;3.50;;;1.80;;
79204;SDS011;68632;47.512;19.104;2023-04-01T06:00:13;5.13;;;2.20;;
79204;SDS011;68632;47.512;19.104;2023-04-01T06:01:16;5.65;;;2.42;;
79204;SDS011;68632;47.512;19.104;2023-04-01T06:02:18;6.05;;;2.20;;
79204;SDS011;68632;47.512;19.104;2023-04-01T06:03:21;5.38;;;1.83;;
79204;SDS011;68632;47.512;19.104;2023-04-01T06:04:23;4.13;;;1.80;;
79204;SDS011;68632;47.512;19.104;2023-04-01T06:05:27;4.97;;;2.15;;
79204;SDS011;68632;47.512;19.104;2023-04-01T06:06:31;4.38;;;1.80;;
79204;SDS011;68632;47.512;19.104;2023-04-01T06:07:34;5.45;;;1.98;;
79204;SDS011;68632;47.512;19.104;2023-04-01T06:08:36;4.38;;;2.20;;
79204;SDS011;68632;47.512;19.104;2023-04-01T06:09:38;6.18;;;2.05;;
79204;SDS011;68632;47.512;19.104;2023-04-01T06:16:26;4.10;;;1.73;;
79204;SDS011;68632;47.512;19.104;2023-04-01T06:24:00;2.88;;;2.15;;
79204;SDS011;68632;47.512;19.104;2023-04-01T06:29:56;4.07;;;1.73;;
79204;SDS011;68632;47.512;19.104;2023-04-01T06:36:19;4.30;;;2.17;;
79204;SDS011;68632;47.512;19.104;2023-04-01T06:37:54;4.22;;;2.33;;
79204;SDS011;68632;47.512;19.104;2023-04-01T06:42:22;3.38;;;2.00;;
79204;SDS011;68632;47.512;19.104;2023-04-01T06:44:33;4.53;;;2.00;;
79204;SDS011;68632;47.512;19.104;2023-04-01T06:45:28;6.28;;;1.85;;
79204;SDS011;68632;47.512;19.104;2023-04-01T06:49:04;5.43;;;2.17;;
79204;SDS011;68632;47.512;19.104;2023-04-01T06:56:29;5.70;;;3.25;;
79204;SDS011;68632;47.512;19.104;2023-04-01T06:58:17;4.55;;;2.17;;
79204;SDS011;68632;47.512;19.104;2023-04-01T07:00:17;2.88;;;1.73;;
79204;SDS011;68632;47.512;19.104;2023-04-01T07:01:30;4.55;;;2.15;;
79204;SDS011;68632;47.512;19.104;2023-04-01T07:02:41;4.18;;;2.90;;
79204;SDS011;68632;47.512;19.104;2023-04-01T07:03:53;3.67;;;1.70;;
79204;SDS011;68632;47.512;19.104;2023-04-01T07:04:59;4.18;;;2.15;;
79204;SDS011;68632;47.512;19.104;2023-04-01T07:06:05;3.22;;;1.75;;
79204;SDS011;68632;47.512;19.104;2023-04-01T07:07:57;3.42;;;1.92;;
79204;SDS011;68632;47.512;19.104;2023-04-01T07:08:40;5.22;;;1.90;;
79204;SDS011;68632;47.512;19.104;2023-04-01T07:10:55;6.47;;;2.33;;
79204;SDS011;68632;47.512;19.104;2023-04-01T07:12:01;3.67;;;2.10;;
79204;SDS011;68632;47.512;19.104;2023-04-01T07:13:10;3.33;;;1.73;;
79204;SDS011;68632;47.512;19.104;2023-04-01T07:15:30;4.28;;;1.98;;
79204;SDS011;68632;47.512;19.104;2023-04-01T07:16:41;5.28;;;2.03;;
79204;SDS011;68632;47.512;19.104;2023-04-01T07:17:52;6.53;;;2.00;;
79204;SDS011;68632;47.512;19.104;2023-04-01T07:19:08;4.38;;;1.90;;
79204;SDS011;68632;47.512;19.104;2023-04-01T07:20:25;4.13;;;1.83;;
79204;SDS011;68632;47.512;19.104;2023-04-01T07:21:37;3.83;;;1.88;;